Time;durP1;ratioP1;P1;durP2;ratioP2;P2;SDS_P1;SDS_P2;PMS_P1;PMS_P2;Temp;Humidity;BMP_temperature;BMP_pressure;BME280_temperature;BME280_humidity;BME280_pressure;Samples;Min_cycle;Max_cycle;Signal;HPM_P1;HPM_P2
2022/01/15 00:01:36;;;;;;;19.95;10.15;;;6.70;99.90;;;;;;5024174;22;20485;-55
2022/01/15 00:04:02;;;;;;;20.63;10.10;;;6.80;99.90;;;;;;5005983;28;20030;-55
2022/01/15 00:06:27;;;;;;;17.83;9.65;;;6.80;99.90;;;;;;5011030;28;20523;-55
2022/01/15 00:08:53;;;;;;;26.73;11.77;;;6.80;99.90;;;;;;5010803;28;20040;-54
2022/01/15 00:11:18;;;;;;;21.95;10.30;;;6.80;99.90;;;;;;5003316;28;20039;-54
2022/01/15 00:13:52;;;;;;;22.38;11.20;;;6.80;99.90;;;;;;4996470;28;20045;-55
2022/01/15 00:16:30;;;;;;;22.00;10.45;;;6.70;99.90;;;;;;5000474;28;20204;-55
2022/01/15 00:19:05;;;;;;;21.70;10.32;;;6.70;99.90;;;;;;4997165;28;20070;-53
2022/01/15 00:21:30;;;;;;;24.90;11.70;;;6.80;99.90;;;;;;4995876;28;20714;-55
2022/01/15 00:23:56;;;;;;;24.00;10.75;;;6.70;99.90;;;;;;4990052;28;20027;-55
2022/01/15 00:26:21;;;;;;;23.77;11.13;;;6.70;99.90;;;;;;4995668;28;20065;-51
2022/01/15 00:28:47;;;;;;;20.35;10.50;;;6.70;99.90;;;;;;5001247;28;20046;-53
2022/01/15 00:31:12;;;;;;;21.35;10.43;;;6.70;99.90;;;;;;5002602;28;20061;-50
2022/01/15 00:33:38;;;;;;;21.83;10.82;;;6.70;99.90;;;;;;4992201;28;20074;-52
2022/01/15 00:36:04;;;;;;;19.50;10.07;;;6.70;99.90;;;;;;4991897;28;20046;-53
2022/01/15 00:38:29;;;;;;;19.55;9.65;;;6.70;99.90;;;;;;4992523;28;20038;-52
2022/01/15 00:40:55;;;;;;;22.38;11.23;;;6.70;99.90;;;;;;4992467;28;20053;-51
2022/01/15 00:43:21;;;;;;;20.20;10.23;;;6.70;99.90;;;;;;4990988;28;20042;-51
2022/01/15 00:45:47;;;;;;;22.10;10.77;;;6.70;99.90;;;;;;4992152;28;20035;-52
2022/01/15 00:48:13;;;;;;;22.50;9.80;;;6.70;99.90;;;;;;4992657;28;20081;-50
2022/01/15 00:50:38;;;;;;;20.23;10.02;;;6.70;99.90;;;;;;4991823;28;20406;-51
2022/01/15 00:53:04;;;;;;;17.17;9.05;;;6.70;99.90;;;;;;4992287;28;20053;-51
2022/01/15 00:55:29;;;;;;;18.95;8.95;;;6.70;99.90;;;;;;4992467;28;20125;-50
2022/01/15 00:57:55;;;;;;;20.55;9.75;;;6.70;99.90;;;;;;4981435;28;20050;-50
2022/01/15 01:00:23;;;;;;;18.15;9.07;;;6.70;99.90;;;;;;4992174;28;20045;-50
2022/01/15 01:02:49;;;;;;;18.23;9.70;;;6.70;99.90;;;;;;4991625;28;20046;-51
2022/01/15 01:05:16;;;;;;;19.23;9.13;;;6.70;99.90;;;;;;4991670;28;20042;-55
2022/01/15 01:07:41;;;;;;;16.20;9.15;;;6.70;99.90;;;;;;4992234;28;20437;-55
2022/01/15 01:10:43;;;;;;;20.02;9.50;;;6.70;99.90;;;;;;4984078;28;20031;-55
2022/01/15 01:23:26;;;;;;;19.85;9.73;;;6.60;99.90;;;;;;4991642;28;20042;-51
2022/01/15 01:25:58;;;;;;;19.48;9.90;;;6.60;99.90;;;;;;4992056;28;20030;-51
2022/01/15 01:28:38;;;;;;;16.25;9.02;;;6.70;99.90;;;;;;4990347;28;20494;-53
2022/01/15 01:33:35;;;;;;;23.48;9.80;;;6.60;99.90;;;;;;4991469;28;20046;-55
2022/01/15 01:36:57;;;;;;;19.25;9.68;;;6.60;99.90;;;;;;4991953;28;20046;-54
2022/01/15 01:38:54;;;;;;;17.10;8.55;;;6.60;99.90;;;;;;4984612;28;20133;-55
2022/01/15 01:41:22;;;;;;;19.38;9.13;;;6.60;99.90;;;;;;4990314;28;20089;-55
2022/01/15 01:48:42;;;;;;;19.88;9.18;;;6.60;99.90;;;;;;4990220;28;20047;-55
2022/01/15 01:51:19;;;;;;;18.60;8.73;;;6.60;99.90;;;;;;4992015;28;20391;-55
2022/01/15 01:53:44;;;;;;;17.10;8.80;;;6.60;99.90;;;;;;4992681;28;20133;-51
2022/01/15 01:56:10;;;;;;;13.80;7.88;;;6.60;99.90;;;;;;4993967;28;20117;-54
2022/01/15 01:58:36;;;;;;;19.40;8.80;;;6.60;99.90;;;;;;4995427;28;20046;-54
2022/01/15 02:01:02;;;;;;;19.65;8.93;;;6.60;99.90;;;;;;4993359;28;20089;-55
2022/01/15 02:03:27;;;;;;;21.17;8.88;;;6.60;99.90;;;;;;4991031;28;20039;-54
2022/01/15 02:05:54;;;;;;;22.60;9.73;;;6.50;99.90;;;;;;4995273;28;20042;-54
2022/01/15 02:08:19;;;;;;;17.00;8.30;;;6.50;99.90;;;;;;4995240;28;20039;-55
2022/01/15 02:10:45;;;;;;;16.90;8.75;;;6.50;99.90;;;;;;4994338;28;20070;-54
2022/01/15 02:13:13;;;;;;;17.88;8.57;;;6.60;99.90;;;;;;4994807;28;20077;-55
2022/01/15 02:15:38;;;;;;;18.42;9.07;;;6.50;99.90;;;;;;4994213;28;20496;-53
2022/01/15 02:18:04;;;;;;;18.40;8.77;;;6.50;99.90;;;;;;4994467;28;20121;-54
2022/01/15 02:25:50;;;;;;;17.95;8.15;;;6.60;99.90;;;;;;4994288;28;20426;-53
2022/01/15 02:28:18;;;;;;;20.20;9.43;;;6.50;99.90;;;;;;4994255;28;20038;-54
2022/01/15 02:30:43;;;;;;;16.17;8.52;;;6.50;99.90;;;;;;4994774;28;20038;-55
2022/01/15 02:33:09;;;;;;;15.70;7.80;;;6.50;99.90;;;;;;4994597;28;20092;-55
2022/01/15 02:35:35;;;;;;;17.15;8.02;;;6.50;99.90;;;;;;4994663;28;20556;-54
2022/01/15 02:38:09;;;;;;;19.08;8.73;;;6.50;99.90;;;;;;4994565;28;20053;-54
2022/01/15 02:40:35;;;;;;;17.50;8.23;;;6.50;99.90;;;;;;4994059;28;20080;-53
2022/01/15 02:43:11;;;;;;;14.77;8.13;;;6.50;99.90;;;;;;4993744;28;20038;-54
2022/01/15 02:45:41;;;;;;;15.45;8.05;;;6.50;99.90;;;;;;4994627;28;20038;-52
2022/01/15 02:48:15;;;;;;;14.55;7.35;;;6.50;99.90;;;;;;4994492;28;20042;-54
2022/01/15 02:50:42;;;;;;;16.25;7.57;;;6.50;99.90;;;;;;4993563;28;20128;-54
2022/01/15 02:53:09;;;;;;;13.90;6.97;;;6.50;99.90;;;;;;4994347;28;20058;-54
2022/01/15 02:55:34;;;;;;;17.02;7.82;;;6.50;99.90;;;;;;4994410;28;20061;-54
2022/01/15 02:58:00;;;;;;;16.08;7.88;;;6.50;99.90;;;;;;4994026;28;20402;-53
2022/01/15 03:00:27;;;;;;;14.02;7.30;;;6.50;99.90;;;;;;4994029;28;20156;-54
2022/01/15 03:02:52;;;;;;;14.25;7.30;;;6.50;99.90;;;;;;4994011;28;20451;-54
2022/01/15 03:05:20;;;;;;;17.10;7.35;;;6.50;99.90;;;;;;4992963;28;20042;-54
2022/01/15 03:07:46;;;;;;;14.88;7.82;;;6.50;99.90;;;;;;4977422;28;20053;-54
2022/01/15 03:10:12;;;;;;;13.07;7.10;;;6.50;99.90;;;;;;4986723;28;20445;-54
2022/01/15 03:12:37;;;;;;;15.40;7.50;;;6.50;99.90;;;;;;4993604;28;20039;-54
2022/01/15 03:15:05;;;;;;;14.65;7.45;;;6.50;99.90;;;;;;4994116;28;20041;-54
2022/01/15 03:17:31;;;;;;;11.60;6.88;;;6.50;99.90;;;;;;4976505;28;20406;-54
2022/01/15 03:20:01;;;;;;;14.13;7.00;;;6.50;99.90;;;;;;4993740;28;20038;-54
2022/01/15 03:22:26;;;;;;;12.65;7.25;;;6.50;99.90;;;;;;4993569;28;20046;-54
2022/01/15 03:24:52;;;;;;;14.18;7.35;;;6.50;99.90;;;;;;4993599;28;20487;-53
2022/01/15 03:27:21;;;;;;;14.07;7.40;;;6.50;99.90;;;;;;4981170;28;20561;-53
2022/01/15 03:29:46;;;;;;;16.20;7.65;;;6.50;99.90;;;;;;4993622;28;20041;-54
2022/01/15 03:32:12;;;;;;;17.90;7.97;;;6.50;99.90;;;;;;4993149;28;20046;-54
2022/01/15 03:34:38;;;;;;;15.55;8.43;;;6.50;99.90;;;;;;4980916;28;20038;-54
2022/01/15 03:37:03;;;;;;;16.10;7.63;;;6.50;99.90;;;;;;4974154;28;20097;-54
2022/01/15 03:39:29;;;;;;;16.02;7.93;;;6.50;99.90;;;;;;4980775;28;20069;-54
2022/01/15 03:41:54;;;;;;;17.23;7.93;;;6.50;99.90;;;;;;4993225;28;20099;-54
2022/01/15 03:44:20;;;;;;;18.23;7.68;;;6.50;99.90;;;;;;4993240;28;20053;-54
2022/01/15 03:46:45;;;;;;;16.38;7.22;;;6.50;99.90;;;;;;4993133;28;20113;-54
2022/01/15 03:49:11;;;;;;;13.30;6.80;;;6.50;99.90;;;;;;4993079;28;20045;-53
2022/01/15 03:51:37;;;;;;;13.65;6.50;;;6.50;99.90;;;;;;4993396;28;20038;-54
2022/01/15 03:54:03;;;;;;;13.70;5.70;;;6.40;99.90;;;;;;4992526;28;20117;-53
2022/01/15 03:56:30;;;;;;;13.05;5.55;;;6.50;99.90;;;;;;4993125;28;20096;-54
2022/01/15 03:58:56;;;;;;;8.18;4.60;;;6.50;99.90;;;;;;4993125;28;20398;-54
2022/01/15 04:01:21;;;;;;;10.43;4.75;;;6.40;99.90;;;;;;4992601;28;20050;-53
2022/01/15 04:03:47;;;;;;;8.75;4.70;;;6.50;99.90;;;;;;4992842;28;20042;-51
2022/01/15 04:06:13;;;;;;;9.60;4.28;;;6.40;99.90;;;;;;4992855;28;20451;-51
2022/01/15 04:08:38;;;;;;;8.30;4.70;;;6.40;99.90;;;;;;4993483;28;20044;-50
2022/01/15 04:11:04;;;;;;;7.20;4.00;;;6.40;99.90;;;;;;4999884;28;20069;-53
2022/01/15 04:13:29;;;;;;;5.10;2.83;;;6.40;99.90;;;;;;5005393;28;20077;-50
2022/01/15 04:15:56;;;;;;;5.60;2.75;;;6.40;99.90;;;;;;5005160;28;20042;-51
2022/01/15 04:18:22;;;;;;;4.15;2.35;;;6.40;99.90;;;;;;5012160;28;20104;-50
2022/01/15 04:20:48;;;;;;;8.02;3.70;;;6.40;99.90;;;;;;5006230;28;20046;-52
2022/01/15 04:23:14;;;;;;;9.02;3.90;;;6.40;99.90;;;;;;4991023;28;20049;-50
2022/01/15 04:25:40;;;;;;;8.52;4.15;;;6.40;99.90;;;;;;4991639;28;20550;-51
2022/01/15 04:28:09;;;;;;;7.80;4.28;;;6.40;99.90;;;;;;4992582;28;20046;-51
2022/01/15 04:30:40;;;;;;;8.20;4.10;;;6.30;99.90;;;;;;4992541;28;20053;-51
2022/01/15 04:33:05;;;;;;;6.40;3.80;;;6.30;99.90;;;;;;4992149;28;20088;-49
2022/01/15 04:35:31;;;;;;;7.15;3.75;;;6.30;99.90;;;;;;4992673;28;20125;-50
2022/01/15 04:38:04;;;;;;;5.13;3.05;;;6.30;99.90;;;;;;4985207;28;20038;-53
2022/01/15 04:40:30;;;;;;;7.18;3.15;;;6.30;99.90;;;;;;4992501;28;20084;-51
2022/01/15 04:42:55;;;;;;;5.57;3.08;;;6.30;99.90;;;;;;4979473;28;20521;-50
2022/01/15 04:45:21;;;;;;;5.13;3.00;;;6.30;99.90;;;;;;4972918;28;20039;-50
2022/01/15 04:47:46;;;;;;;7.57;3.85;;;6.30;99.90;;;;;;4973163;28;20113;-51
2022/01/15 04:50:16;;;;;;;4.70;3.00;;;6.30;99.90;;;;;;4972770;28;20042;-52
2022/01/15 04:52:42;;;;;;;6.35;3.65;;;6.30;99.90;;;;;;4991076;28;20406;-52
2022/01/15 04:55:09;;;;;;;5.35;3.10;;;6.30;99.90;;;;;;4990997;28;20046;-50
2022/01/15 04:57:35;;;;;;;5.93;3.38;;;6.30;99.90;;;;;;4992191;28;20418;-51
2022/01/15 05:00:03;;;;;;;5.22;2.92;;;6.30;99.90;;;;;;4991965;28;20065;-51
2022/01/15 05:02:29;;;;;;;5.40;3.10;;;6.30;99.90;;;;;;4991829;28;20038;-50
2022/01/15 05:04:54;;;;;;;5.95;3.33;;;6.30;99.90;;;;;;4992346;28;20050;-50
2022/01/15 05:07:21;;;;;;;5.47;3.30;;;6.30;99.90;;;;;;4991619;28;20088;-51
2022/01/15 05:09:47;;;;;;;6.20;3.38;;;6.30;99.90;;;;;;4990858;28;20096;-50
2022/01/15 05:12:27;;;;;;;7.03;3.40;;;6.30;99.90;;;;;;4990375;28;20046;-51
2022/01/15 05:14:53;;;;;;;6.15;3.22;;;6.20;99.90;;;;;;4992290;28;20711;-50
2022/01/15 05:17:18;;;;;;;6.07;3.25;;;6.20;99.90;;;;;;4992105;28;20081;-50
2022/01/15 05:19:44;;;;;;;6.22;3.53;;;6.20;99.90;;;;;;4992149;28;20045;-50
2022/01/15 05:22:10;;;;;;;6.97;3.60;;;6.20;99.90;;;;;;4991548;28;20038;-53
2022/01/15 05:24:35;;;;;;;6.88;3.50;;;6.20;99.90;;;;;;4992029;28;20468;-50
2022/01/15 05:27:01;;;;;;;6.68;3.80;;;6.20;99.90;;;;;;4991829;28;20085;-50
2022/01/15 05:29:27;;;;;;;6.47;3.63;;;6.20;99.90;;;;;;4994115;28;20526;-52
2022/01/15 05:31:52;;;;;;;6.55;3.60;;;6.10;99.90;;;;;;4995621;28;20049;-54
2022/01/15 05:34:18;;;;;;;7.88;4.05;;;6.20;99.90;;;;;;4995636;28;20046;-54
2022/01/15 05:36:43;;;;;;;9.40;4.45;;;6.10;99.90;;;;;;4995387;28;20499;-54
2022/01/15 05:39:09;;;;;;;6.22;3.83;;;6.10;99.90;;;;;;4992328;28;20113;-54
2022/01/15 05:41:35;;;;;;;6.95;4.03;;;6.10;99.90;;;;;;4976010;28;20051;-54
2022/01/15 05:44:02;;;;;;;7.65;4.30;;;6.10;99.90;;;;;;4975842;28;20039;-55
2022/01/15 05:46:29;;;;;;;9.35;4.70;;;6.10;99.90;;;;;;4974829;28;20043;-52
2022/01/15 05:48:55;;;;;;;7.18;4.35;;;6.10;99.90;;;;;;4976530;28;20089;-53
2022/01/15 05:51:21;;;;;;;14.63;4.78;;;6.10;99.90;;;;;;4992655;28;20042;-51
2022/01/15 05:53:47;;;;;;;7.35;4.20;;;6.10;99.90;;;;;;4997169;28;20045;-51
2022/01/15 05:56:12;;;;;;;9.27;4.25;;;6.00;99.90;;;;;;5003099;28;20058;-50
2022/01/15 05:58:38;;;;;;;7.53;4.38;;;6.10;99.90;;;;;;5014152;28;20069;-50
2022/01/15 06:03:35;;;;;;;8.05;4.38;;;6.00;99.90;;;;;;5011767;28;20080;-55
2022/01/15 06:06:02;;;;;;;7.70;4.10;;;6.00;99.90;;;;;;5010624;28;20030;-54
2022/01/15 06:08:28;;;;;;;8.10;4.47;;;6.00;99.90;;;;;;5005304;28;20041;-54
2022/01/15 06:10:53;;;;;;;7.28;3.75;;;6.00;99.90;;;;;;5014264;28;20463;-54
2022/01/15 06:13:19;;;;;;;7.65;4.15;;;6.00;99.90;;;;;;5014208;28;20124;-54
2022/01/15 06:15:44;;;;;;;7.07;4.45;;;6.00;99.90;;;;;;4997004;28;20393;-54
2022/01/15 06:18:10;;;;;;;6.93;4.45;;;6.00;99.90;;;;;;5014248;28;20521;-51
2022/01/15 06:20:36;;;;;;;7.18;4.13;;;6.00;99.90;;;;;;4979713;28;20041;-52
2022/01/15 06:23:02;;;;;;;6.40;3.95;;;6.00;99.90;;;;;;4996317;28;20038;-51
2022/01/15 06:25:27;;;;;;;7.20;4.43;;;6.00;99.90;;;;;;4994414;28;20121;-51
2022/01/15 06:27:53;;;;;;;7.32;3.92;;;5.90;99.90;;;;;;4994957;28;20398;-53
2022/01/15 06:30:18;;;;;;;8.20;4.25;;;6.00;99.90;;;;;;4991785;28;20096;-54
2022/01/15 06:32:44;;;;;;;7.60;4.22;;;5.90;99.90;;;;;;5013928;28;20054;-53
2022/01/15 06:35:12;;;;;;;8.15;4.40;;;5.90;99.90;;;;;;5013665;28;20042;-54
2022/01/15 06:37:39;;;;;;;6.88;4.03;;;5.90;99.90;;;;;;5013610;28;20053;-54
2022/01/15 06:40:05;;;;;;;9.15;4.43;;;5.90;99.90;;;;;;5013612;28;20046;-53
2022/01/15 06:42:31;;;;;;;9.00;4.50;;;5.90;99.90;;;;;;5013711;28;20060;-54
2022/01/15 06:44:57;;;;;;;7.13;4.35;;;5.80;99.90;;;;;;5014021;28;20497;-53
2022/01/15 06:47:23;;;;;;;8.32;4.53;;;5.90;99.90;;;;;;5013891;28;20034;-54
2022/01/15 06:49:48;;;;;;;8.98;4.30;;;5.90;99.90;;;;;;4979386;28;20521;-54
2022/01/15 06:52:14;;;;;;;7.60;4.15;;;5.90;99.90;;;;;;5013214;28;20034;-54
2022/01/15 06:54:40;;;;;;;7.57;4.25;;;5.90;99.90;;;;;;4995876;28;20053;-54
2022/01/15 06:57:05;;;;;;;11.15;4.43;;;5.90;99.90;;;;;;5013904;28;20038;-54
2022/01/15 06:59:31;;;;;;;7.80;4.40;;;5.80;99.90;;;;;;5013428;28;20121;-54
2022/01/15 07:01:56;;;;;;;8.95;4.90;;;5.80;99.90;;;;;;4996063;28;20129;-54
2022/01/15 07:04:22;;;;;;;7.93;4.72;;;5.80;99.90;;;;;;5013043;28;20489;-53
2022/01/15 07:06:48;;;;;;;9.80;4.88;;;5.80;99.90;;;;;;5013067;28;20030;-54
2022/01/15 07:09:14;;;;;;;9.27;5.15;;;5.80;99.90;;;;;;5013229;28;20046;-54
2022/01/15 07:11:39;;;;;;;9.57;5.18;;;5.80;99.90;;;;;;5013211;28;20099;-54
2022/01/15 07:14:05;;;;;;;11.75;5.80;;;5.80;99.90;;;;;;5013785;28;20037;-54
2022/01/15 07:16:30;;;;;;;9.25;5.25;;;5.70;99.90;;;;;;5013399;28;20038;-53
2022/01/15 07:18:56;;;;;;;11.13;5.28;;;5.70;99.90;;;;;;5010334;28;20545;-53
2022/01/15 07:21:21;;;;;;;11.20;5.20;;;5.70;99.90;;;;;;5016520;28;20525;-54
2022/01/15 07:23:47;;;;;;;8.98;4.88;;;5.70;99.90;;;;;;5006756;28;20087;-53
2022/01/15 07:26:12;;;;;;;9.70;5.32;;;5.70;99.90;;;;;;4997073;28;20034;-51
2022/01/15 07:28:38;;;;;;;9.98;5.47;;;5.70;99.90;;;;;;4993585;28;20494;-54
2022/01/15 07:31:04;;;;;;;9.77;5.72;;;5.70;99.90;;;;;;4993441;28;20101;-54
2022/01/15 07:33:29;;;;;;;13.63;5.95;;;5.70;99.90;;;;;;4978523;28;20552;-54
2022/01/15 07:35:55;;;;;;;9.65;5.65;;;5.70;99.90;;;;;;5012811;28;20038;-54
2022/01/15 07:38:21;;;;;;;10.32;5.78;;;5.80;99.90;;;;;;5012291;28;20124;-54
2022/01/15 07:40:48;;;;;;;12.68;6.30;;;5.70;99.90;;;;;;5011837;28;20115;-54
2022/01/15 07:43:13;;;;;;;12.50;5.78;;;5.70;99.90;;;;;;5012750;28;20453;-54
2022/01/15 07:45:40;;;;;;;12.55;6.10;;;5.60;99.90;;;;;;5008910;28;20034;-53
2022/01/15 07:48:05;;;;;;;12.00;6.43;;;5.60;99.90;;;;;;5010716;28;20092;-54
2022/01/15 07:50:31;;;;;;;13.85;6.78;;;5.70;99.90;;;;;;5012564;28;20046;-54
2022/01/15 07:52:58;;;;;;;12.25;6.80;;;5.70;99.90;;;;;;5011791;28;20048;-54
2022/01/15 07:55:24;;;;;;;11.15;5.85;;;5.70;99.90;;;;;;5012390;28;20423;-53
2022/01/15 07:57:50;;;;;;;13.32;6.57;;;5.70;99.90;;;;;;5012233;28;20091;-54
2022/01/15 08:00:16;;;;;;;17.40;8.07;;;5.70;99.90;;;;;;5005720;28;20050;-53
2022/01/15 08:02:43;;;;;;;13.80;6.63;;;5.60;99.90;;;;;;5009383;28;20100;-54
2022/01/15 08:05:10;;;;;;;15.25;7.60;;;5.60;99.90;;;;;;5010551;28;20057;-54
2022/01/15 08:07:37;;;;;;;15.20;7.78;;;5.50;99.90;;;;;;4978114;28;20053;-52
2022/01/15 08:10:06;;;;;;;13.48;7.55;;;5.50;99.90;;;;;;5012002;28;20048;-52
2022/01/15 08:12:32;;;;;;;16.65;8.30;;;5.50;99.90;;;;;;5011074;28;20301;-54
2022/01/15 08:14:57;;;;;;;13.77;7.85;;;5.60;99.90;;;;;;5011896;28;20068;-54
2022/01/15 08:17:23;;;;;;;12.85;6.93;;;5.60;99.90;;;;;;5011336;28;20042;-51
2022/01/15 08:19:49;;;;;;;14.77;7.65;;;5.60;99.90;;;;;;4994489;28;20449;-53
2022/01/15 08:22:14;;;;;;;12.20;7.00;;;5.60;99.90;;;;;;5012142;28;20088;-54
2022/01/15 08:24:40;;;;;;;14.07;7.60;;;5.50;99.90;;;;;;4974107;28;20529;-52
2022/01/15 08:27:06;;;;;;;14.52;7.18;;;5.50;99.90;;;;;;5000420;28;20053;-54
2022/01/15 08:29:32;;;;;;;14.98;7.63;;;5.50;99.90;;;;;;5010972;28;20069;-54
2022/01/15 08:31:57;;;;;;;15.98;8.00;;;5.40;99.90;;;;;;4995704;28;20036;-55
2022/01/15 08:34:23;;;;;;;16.27;7.88;;;5.40;99.90;;;;;;4999898;28;20091;-55
2022/01/15 08:36:50;;;;;;;18.38;9.38;;;5.40;99.90;;;;;;5011063;28;20057;-54
2022/01/15 08:39:16;;;;;;;19.00;9.70;;;5.30;99.90;;;;;;5010304;28;20508;-54
2022/01/15 08:41:48;;;;;;;20.73;10.13;;;5.30;99.90;;;;;;5009513;28;20096;-54
2022/01/15 08:44:19;;;;;;;22.10;10.50;;;5.30;99.90;;;;;;5011348;28;20041;-54
2022/01/15 08:46:45;;;;;;;18.77;10.15;;;5.30;99.90;;;;;;4991550;28;20037;-54
2022/01/15 08:49:10;;;;;;;18.75;10.07;;;5.30;99.90;;;;;;5008579;28;20080;-55
2022/01/15 08:51:36;;;;;;;18.48;9.20;;;5.30;99.90;;;;;;5009229;28;20044;-54
2022/01/15 08:54:01;;;;;;;22.77;10.32;;;5.30;99.90;;;;;;5009206;28;20414;-52
2022/01/15 08:56:27;;;;;;;20.10;10.15;;;5.30;99.90;;;;;;5010278;28;20045;-54
2022/01/15 08:58:52;;;;;;;22.70;11.70;;;5.30;99.90;;;;;;5010511;28;20482;-51
2022/01/15 09:01:18;;;;;;;21.08;11.10;;;5.30;99.90;;;;;;5009032;28;20044;-54
2022/01/15 09:03:43;;;;;;;22.10;10.18;;;5.30;99.90;;;;;;4980291;28;20503;-50
2022/01/15 09:06:09;;;;;;;20.75;10.23;;;5.30;99.90;;;;;;5014651;28;20034;-54
2022/01/15 09:08:35;;;;;;;22.77;10.55;;;5.30;99.90;;;;;;5013007;28;20391;-53
2022/01/15 09:11:01;;;;;;;20.92;10.20;;;5.30;99.90;;;;;;5012938;28;20053;-54
2022/01/15 09:13:27;;;;;;;13.38;7.03;;;5.30;99.90;;;;;;5013969;28;20504;-55
2022/01/15 09:15:52;;;;;;;17.73;9.50;;;5.30;99.90;;;;;;5014261;28;20037;-54
2022/01/15 09:18:19;;;;;;;22.08;10.10;;;5.30;99.90;;;;;;5014645;28;20064;-54
2022/01/15 09:20:46;;;;;;;20.23;10.43;;;5.20;99.90;;;;;;5013991;28;20115;-54
2022/01/15 09:23:12;;;;;;;21.17;10.38;;;5.20;99.90;;;;;;5014003;28;20036;-54
2022/01/15 09:25:38;;;;;;;19.92;10.68;;;5.20;99.90;;;;;;5014053;28;20120;-53
2022/01/15 09:30:48;;;;;;;18.42;8.95;;;5.30;99.90;;;;;;5014106;28;20068;-54
2022/01/15 09:33:15;;;;;;;16.27;8.85;;;5.30;99.90;;;;;;5013796;28;20038;-54
2022/01/15 09:35:40;;;;;;;15.80;8.38;;;5.20;99.90;;;;;;5013722;28;20132;-50
2022/01/15 09:38:07;;;;;;;17.70;8.38;;;5.30;99.90;;;;;;5014105;28;20498;-51
2022/01/15 09:43:47;;;;;;;16.65;8.65;;;5.30;99.90;;;;;;5036966;23;20492;-87
2022/01/15 09:46:15;;;;;;;13.68;7.78;;;5.30;99.90;;;;;;4990014;28;20187;-88
2022/01/15 09:48:44;;;;;;;18.23;8.82;;;5.90;99.90;;;;;;4979847;28;20038;-87
2022/01/15 09:51:10;;;;;;;15.13;8.75;;;5.30;99.90;;;;;;4980889;28;20079;-87
2022/01/15 09:53:37;;;;;;;15.43;8.27;;;5.30;99.90;;;;;;4978734;28;20488;-86
2022/01/15 09:56:06;;;;;;;14.82;8.70;;;5.30;99.90;;;;;;4992233;28;20042;-87
2022/01/15 09:58:31;;;;;;;16.58;9.18;;;5.40;99.90;;;;;;4974575;28;20054;-87
2022/01/15 10:00:57;;;;;;;17.25;9.23;;;5.30;99.90;;;;;;4989221;28;20046;-87
2022/01/15 10:03:23;;;;;;;18.27;10.13;;;5.30;99.90;;;;;;4976081;28;20498;-86
2022/01/15 10:05:49;;;;;;;19.20;10.38;;;5.40;99.90;;;;;;4995190;28;20038;-86
2022/01/15 10:08:19;;;;;;;17.95;10.05;;;5.30;99.90;;;;;;4979446;28;20029;-87
2022/01/15 10:10:51;;;;;;;19.50;10.90;;;5.30;99.90;;;;;;4992414;28;20037;-86
2022/01/15 10:13:24;;;;;;;;;;;5.40;99.90;;;;;;4988674;28;20137;-87
2022/01/15 10:16:12;;;;;;;20.50;11.70;;;5.30;99.90;;;;;;4989055;28;19925;-87
2022/01/15 10:18:47;;;;;;;22.08;11.80;;;5.30;99.90;;;;;;4980617;28;20088;-87
2022/01/15 10:21:23;;;;;;;21.00;12.20;;;5.30;99.90;;;;;;4987375;28;20877;-87
2022/01/15 10:23:54;;;;;;;23.17;12.80;;;5.30;99.90;;;;;;4992559;28;20523;-87
2022/01/15 10:26:27;;;;;;;21.60;11.77;;;5.30;99.90;;;;;;4978875;28;20034;-88
2022/01/15 10:28:54;;;;;;;22.80;13.20;;;5.30;99.90;;;;;;4975286;28;20236;-86
2022/01/15 10:31:27;;;;;;;22.20;11.57;;;5.30;99.90;;;;;;4989711;28;20041;-87
2022/01/15 10:33:54;;;;;;;23.58;12.02;;;5.30;99.90;;;;;;4974791;28;20060;-86
2022/01/15 10:36:22;;;;;;;23.02;12.73;;;5.30;99.90;;;;;;4976573;28;20100;-88
2022/01/15 10:38:48;;;;;;;23.98;13.25;;;5.30;99.90;;;;;;4973998;28;20034;-87
2022/01/15 10:41:34;;;;;;;22.75;11.82;;;5.20;99.90;;;;;;4979924;28;20143;-87
2022/01/15 10:44:03;;;;;;;22.40;12.10;;;5.20;99.90;;;;;;4995864;28;20264;-87
2022/01/15 10:46:35;;;;;;;23.13;13.38;;;5.30;99.90;;;;;;5005036;28;20125;-88
2022/01/15 10:49:21;;;;;;;22.83;13.03;;;5.20;99.90;;;;;;4985122;28;20180;-89
2022/01/15 10:52:15;;;;;;;24.23;13.13;;;5.20;99.90;;;;;;4969422;28;20509;-88
2022/01/15 10:55:04;;;;;;;24.38;13.38;;;5.20;99.90;;;;;;4993908;28;20489;-88
2022/01/15 10:58:00;;;;;;;21.38;12.80;;;5.20;99.90;;;;;;4978390;28;20049;-88
2022/01/15 11:00:59;;;;;;;23.63;12.88;;;5.20;99.90;;;;;;5017699;28;20077;-89
2022/01/15 11:03:36;;;;;;;23.92;12.80;;;5.30;99.90;;;;;;4947209;28;20060;-88
2022/01/15 11:06:02;;;;;;;24.50;13.38;;;5.30;99.90;;;;;;5006011;28;20045;-89
2022/01/15 11:08:28;;;;;;;25.48;13.43;;;5.20;99.90;;;;;;5017168;28;20035;-89
2022/01/15 11:11:11;;;;;;;26.20;14.27;;;5.20;99.90;;;;;;5002064;28;20033;-89
2022/01/15 11:13:43;;;;;;;23.77;13.45;;;5.20;99.90;;;;;;4992005;28;20034;-90
2022/01/15 11:16:13;;;;;;;25.88;13.07;;;5.20;99.90;;;;;;4973719;28;20068;-91
2022/01/15 11:18:43;;;;;;;24.58;13.32;;;5.20;99.90;;;;;;4967622;28;20034;-85
2022/01/15 11:21:14;;;;;;;21.50;11.65;;;5.20;99.90;;;;;;4983011;28;20045;-86
2022/01/15 11:23:41;;;;;;;24.17;12.82;;;5.30;99.90;;;;;;4993313;28;20088;-84
2022/01/15 11:26:13;;;;;;;25.45;13.60;;;5.20;99.90;;;;;;4970492;28;20037;-85
2022/01/15 11:28:41;;;;;;;25.83;13.57;;;5.20;99.90;;;;;;4980710;28;20038;-84
2022/01/15 11:31:06;;;;;;;27.65;14.52;;;5.20;99.90;;;;;;4993674;28;20053;-85
2022/01/15 11:33:54;;;;;;;24.70;13.52;;;5.20;99.90;;;;;;4972862;28;20558;-86
2022/01/15 11:36:41;;;;;;;28.65;14.82;;;5.20;99.90;;;;;;4988149;28;20041;-87
2022/01/15 11:39:10;;;;;;;26.83;14.50;;;5.20;99.90;;;;;;4990870;28;20046;-88
2022/01/15 11:41:48;;;;;;;24.98;14.00;;;5.20;99.90;;;;;;4981265;28;20049;-87
2022/01/15 11:44:16;;;;;;;26.58;13.57;;;5.10;99.90;;;;;;4974669;28;20044;-87
2022/01/15 11:46:54;;;;;;;27.55;14.57;;;5.20;99.90;;;;;;4989959;28;20044;-88
2022/01/15 11:49:26;;;;;;;30.30;15.20;;;5.10;99.90;;;;;;4992886;28;21199;-87
2022/01/15 11:52:19;;;;;;;31.20;15.50;;;5.10;99.90;;;;;;4975398;28;20061;-86
2022/01/15 11:54:50;;;;;;;30.55;14.57;;;5.10;99.90;;;;;;4992138;28;20481;-87
2022/01/15 11:57:24;;;;;;;31.95;15.70;;;5.20;99.90;;;;;;4991561;28;20042;-85
2022/01/15 11:59:51;;;;;;;34.15;15.65;;;5.10;99.90;;;;;;4997700;28;20052;-87
2022/01/15 12:02:32;;;;;;;34.13;15.85;;;5.10;99.90;;;;;;4995537;28;20045;-86
2022/01/15 12:05:19;;;;;;;35.88;16.20;;;5.10;99.90;;;;;;4978614;28;20038;-86
2022/01/15 12:07:45;;;;;;;38.15;18.88;;;5.10;99.90;;;;;;4978371;28;20030;-86
2022/01/15 12:10:23;;;;;;;36.47;17.15;;;5.10;99.90;;;;;;4994761;28;20042;-88
2022/01/15 12:13:23;;;;;;;37.67;17.77;;;5.10;99.90;;;;;;4955176;28;20042;-88
2022/01/15 12:16:08;;;;;;;34.60;16.33;;;5.10;99.90;;;;;;4979087;28;20045;-84
2022/01/15 12:18:48;;;;;;;33.20;17.10;;;5.10;99.90;;;;;;4978568;28;20124;-87
2022/01/15 12:21:45;;;;;;;37.45;16.65;;;5.50;99.90;;;;;;4994570;28;20515;-88
2022/01/15 12:24:36;;;;;;;34.33;16.88;;;5.20;99.90;;;;;;4972370;28;20080;-88
2022/01/15 12:27:07;;;;;;;32.47;15.52;;;5.20;99.90;;;;;;4992443;28;20038;-89
2022/01/15 12:29:34;;;;;;;29.53;14.23;;;5.30;99.90;;;;;;4975802;28;20038;-88
2022/01/15 12:32:00;;;;;;;30.15;15.45;;;5.20;99.90;;;;;;4973952;28;20417;-88
2022/01/15 12:34:27;;;;;;;30.88;15.93;;;5.20;99.90;;;;;;4991808;28;20133;-90
2022/01/15 12:36:53;;;;;;;34.85;16.08;;;5.10;99.90;;;;;;4976436;28;20037;-90
2022/01/15 12:39:39;;;;;;;34.45;15.93;;;5.10;99.90;;;;;;4972934;28;20041;-90
2022/01/15 12:42:06;;;;;;;33.22;15.73;;;5.10;99.90;;;;;;4975567;28;20060;-88
2022/01/15 12:44:51;;;;;;;31.65;15.48;;;5.20;99.90;;;;;;4973575;28;20110;-88
2022/01/15 12:47:17;;;;;;;36.20;17.45;;;5.20;99.90;;;;;;4989201;28;20030;-88
2022/01/15 12:49:45;;;;;;;30.95;16.20;;;5.20;99.90;;;;;;4975810;28;20120;-88
2022/01/15 12:52:23;;;;;;;29.65;15.45;;;5.10;99.90;;;;;;4992180;28;20484;-89
2022/01/15 12:54:51;;;;;;;33.20;16.25;;;5.20;99.90;;;;;;4989678;28;20076;-88
2022/01/15 12:57:39;;;;;;;30.58;16.23;;;5.10;99.90;;;;;;4977693;28;20025;-89
2022/01/15 13:00:11;;;;;;;34.88;15.88;;;5.10;99.90;;;;;;4976091;28;20046;-88
2022/01/15 13:02:38;;;;;;;38.60;17.90;;;5.10;99.90;;;;;;4974876;28;20540;-88
2022/01/15 13:05:04;;;;;;;35.72;16.80;;;5.10;99.90;;;;;;4973578;28;20070;-87
2022/01/15 13:08:00;;;;;;;32.75;16.10;;;5.10;99.90;;;;;;4991736;28;20057;-88
2022/01/15 13:10:31;;;;;;;34.00;16.35;;;5.20;99.90;;;;;;4991216;28;20050;-86
2022/01/15 13:12:58;;;;;;;34.35;16.73;;;5.10;99.90;;;;;;4991161;28;20045;-85
2022/01/15 13:15:29;;;;;;;36.78;17.05;;;5.10;99.90;;;;;;4974140;28;20460;-89
2022/01/15 13:17:56;;;;;;;38.85;17.75;;;5.10;99.90;;;;;;4970796;28;20080;-89
2022/01/15 13:20:33;;;;;;;32.92;16.40;;;5.30;99.90;;;;;;4974423;28;20030;-90
2022/01/15 13:23:04;;;;;;;28.60;13.90;;;5.10;99.90;;;;;;4976348;28;20041;-88
2022/01/15 13:25:33;;;;;;;36.63;16.70;;;5.10;99.90;;;;;;4993558;28;20488;-88